Main page
METAR-TAF:

METAR-TAF

Airports :

Chièvres, Belgium

Chièvres Air Base

latitude: 50-34N, longitude: 003-50E, elevation: 60 m

Current weather observation

The report was made 7 hours and 18 minutes ago, at 16:55 UTC
Wind 11 kt from the East/Northeast
Temperature 2°C
Humidity 60%
Pressure 1020 hPa
Visibility 10 km or more

METAR: EBCV 221655Z AUTO 06011KT 9999 NCD 02/M05 Q1020 BLU

Time: 01:13 (00:13 UTC)

Forecast

The report was made 12 hours and 32 minutes ago, at 11:41 UTC
Forecast valid from 22 at 13 UTC to 22 at 22 UTC
Wind 12 kt from the East/Northeast
Visibility 10 km or more
Clear sky
Temporary
from 22 at 13 UTC to 22 at 18 UTC
Few clouds at a height of 4000 ft

TAF: EBCV 221141Z 2213/2222 07012KT 9999 SKC TEMPO 2213/2218 FEW040 BY EBWM

Weather observations and forecasts of more than 4000 airports (METAR and TAF reports).

The available stations are represented by yellow and red dots on the map.

Hover mouse over dot to see the name of the station.

Then click to see weather observations and forecasts.

To change the map : click on the green buttons with a black cross to zoom in, on the green button with a dash to zoom out, or on the green arrows for adjacent maps.


METAR-TAF: